Map

Track Data

SID SEASON NUMBER BASIN SUBBASIN NAME ISO_TIME NATURE LAT LON WMO_WIND WMO_PRES WMO_AGENCY TRACK_TYPE DIST2LAND LANDFALL IFLAG USA_AGENCY USA_ATCF_ID USA_LAT USA_LON USA_RECORD USA_STATUS USA_WIND USA_PRES USA_SSHS USA_R34_NE USA_R34_SE USA_R34_SW USA_R34_NW USA_R50_NE USA_R50_SE USA_R50_SW USA_R50_NW USA_R64_NE USA_R64_SE USA_R64_SW USA_R64_NW USA_POCI USA_ROCI USA_RMW USA_EYE TOKYO_LAT TOKYO_LON TOKYO_GRADE TOKYO_WIND TOKYO_PRES TOKYO_R50_DIR TOKYO_R50_LONG TOKYO_R50_SHORT TOKYO_R30_DIR TOKYO_R30_LONG TOKYO_R30_SHORT TOKYO_LAND CMA_LAT CMA_LON CMA_CAT CMA_WIND CMA_PRES HKO_LAT HKO_LON HKO_CAT HKO_WIND HKO_PRES NEWDELHI_LAT NEWDELHI_LON NEWDELHI_GRADE NEWDELHI_WIND NEWDELHI_PRES NEWDELHI_CI NEWDELHI_DP NEWDELHI_POCI REUNION_LAT REUNION_LON REUNION_TYPE REUNION_WIND REUNION_PRES REUNION_TNUM REUNION_CI REUNION_RMW REUNION_R34_NE REUNION_R34_SE REUNION_R34_SW REUNION_R34_NW REUNION_R50_NE REUNION_R50_SE REUNION_R50_SW REUNION_R50_NW REUNION_R64_NE REUNION_R64_SE REUNION_R64_SW REUNION_R64_NW BOM_LAT BOM_LON BOM_TYPE BOM_WIND BOM_PRES BOM_TNUM BOM_CI BOM_RMW BOM_R34_NE BOM_R34_SE BOM_R34_SW BOM_R34_NW BOM_R50_NE BOM_R50_SE BOM_R50_SW BOM_R50_NW BOM_R64_NE BOM_R64_SE BOM_R64_SW BOM_R64_NW BOM_ROCI BOM_POCI BOM_EYE BOM_POS_METHOD BOM_PRES_METHOD NADI_LAT NADI_LON NADI_CAT NADI_WIND NADI_PRES WELLINGTON_LAT WELLINGTON_LON WELLINGTON_WIND WELLINGTON_PRES DS824_LAT DS824_LON DS824_STAGE DS824_WIND DS824_PRES TD9636_LAT TD9636_LON TD9636_STAGE TD9636_WIND TD9636_PRES TD9635_LAT TD9635_LON TD9635_WIND TD9635_PRES TD9635_ROCI NEUMANN_LAT NEUMANN_LON NEUMANN_CLASS NEUMANN_WIND NEUMANN_PRES MLC_LAT MLC_LON MLC_CLASS MLC_WIND MLC_PRES USA_GUST BOM_GUST BOM_GUST_PER REUNION_GUST REUNION_GUST_PER USA_SEAHGT USA_SEARAD_NE USA_SEARAD_SE USA_SEARAD_SW USA_SEARAD_NW STORM_SPEED STORM_DIR
1965046S07091 1965 19 SI WA ANNIE 1965-02-14 12:00:00 TS -7.00000 90.8000 main 1077 1077 O________OO_O_ jtwc_sh SH241965 -7.00000 90.8000 30 -1 -7.00000 90.8000 TC 20 1004 -7.00000 90.8000 1 30 -7.00000 90.8000 TC 30 14 218
1965046S07091 1965 19 SI WA ANNIE 1965-02-14 15:00:00 TS -7.55603 90.3628 main 1151 1151 P________PP_P_ SH241965 -7.56260 90.3502 27 -1 -7.53551 90.3481 TC 21 1003 -7.55029 90.3557 1 27 -7.56253 90.4226 TC 27 14 219
1965046S07091 1965 19 SI MM ANNIE 1965-02-14 18:00:00 TS -8.08951 89.9175 main 1228 1228 O________PP_O_ jtwc_sh SH241965 -8.10000 89.9000 25 -1 -8.05670 89.8965 TC 22 1003 -8.08035 89.9086 1 25 -8.10000 90.0000 TC 25 14 221
1965046S07091 1965 19 SI MM ANNIE 1965-02-14 21:00:00 TS -8.57826 89.4602 main 1297 1297 P________PP_P_ SH241965 -8.58744 89.4499 22 -1 -8.54951 89.4466 TC 23 1002 -8.57021 89.4572 1 22 -8.58751 89.5075 TC 22 13 225
1965046S07091 1965 19 SI MM ANNIE 1965-02-15 00:00:00 TS -9.00000 89.0000 main 1367 1367 O________OO_O_ jtwc_sh SH241965 -9.00000 89.0000 20 -1 -9.00000 89.0000 TC 25 1002 -9.00000 89.0000 1 20 -9.00000 89.0000 TC 20 12 230
1965046S07091 1965 19 SI MM ANNIE 1965-02-15 03:00:00 TS -9.34088 88.5479 main 1432 1432 P________PP_P_ SH241965 -9.32244 88.5498 20 -1 -9.39817 88.5581 TC -9.35739 88.5374 1 20 -9.32241 88.5423 TC 20 11 234
1965046S07091 1965 19 SI MM ANNIE 1965-02-15 06:00:00 TS -9.63490 88.0999 main 1487 1487 O________PP_O_ jtwc_sh SH241965 -9.60000 88.1000 20 -1 -9.74954 88.1222 TC -9.65988 88.0770 1 20 -9.60000 88.1000 TC 20 11 236
1965046S07091 1965 19 SI MM ANNIE 1965-02-15 09:00:00 TS -9.93263 87.6486 main 1551 1551 P________PP_P_ SH241965 -9.89997 87.6424 20 -1 -10.0635 87.6936 TC -9.93242 87.6281 1 20 -9.89997 87.6424 TC 20 11 236
1965046S07091 1965 19 SI MM ANNIE 1965-02-15 12:00:00 TS -10.2249 87.2122 main 1606 1606 O________PO_O_ jtwc_sh SH241965 -10.2000 87.2000 20 -1 -10.3494 87.2734 TC -10.2000 87.2000 1 20 -10.2000 87.2000 TC 20 10 235
1965046S07091 1965 19 SI MM ANNIE 1965-02-15 15:00:00 TS -10.5194 86.8003 main 1661 1661 P________PP_P_ SH241965 -10.4999 86.7849 20 -1 -10.6167 86.8628 TC -10.4998 86.7991 1 18 -10.4999 86.7849 TC 17 10 233
1965046S07091 1965 19 SI MM ANNIE 1965-02-15 18:00:00 TS -10.8124 86.4138 main 1716 1716 O________PP_O_ jtwc_sh SH241965 -10.8000 86.4000 20 -1 -10.8746 86.4629 TC -10.7997 86.4197 1 17 -10.8000 86.4000 TC 15 9 231
1965046S07091 1965 19 SI MM ANNIE 1965-02-15 21:00:00 TS -11.1054 86.0500 main 1763 1772 P________PP_P_ SH241965 -11.0999 86.0424 17 -1 -11.1326 86.0750 TC -11.0998 86.0554 1 16 -11.0999 86.0424 TC 15 9 230
1965046S07091 1965 19 SI MM ANNIE 1965-02-16 00:00:00 TS -11.4000 85.7000 main 1818 1818 O________OO_O_ jtwc_sh SH241965 -11.4000 85.7000 15 -1 -11.4000 85.7000 TC 35 998 -11.4000 85.7000 1 15 -11.4000 85.7000 TC 15 9 229
1965046S07091 1965 19 SI MM ANNIE 1965-02-16 03:00:00 TS -11.7087 85.3352 main 1873 1873 P________PP_P_ SH241965 -11.7000 85.3499 15 -1 -11.7281 85.3010 TC 35 998 -11.7244 85.3105 1 -11.7000 85.3499 TC 17 9 229
1965046S07091 1965 19 SI MM ANNIE 1965-02-16 06:00:00 TS -12.0157 84.9760 main 1919 1919 O________PP_O_ jtwc_sh SH241965 -12.0000 85.0000 15 -1 -12.0489 84.9229 TC 35 998 -12.0451 84.9328 1 -12.0000 85.0000 TC 20 9 229
1965046S07091 1965 19 SI MM ANNIE 1965-02-16 09:00:00 TS -12.3260 84.6125 main 1974 1974 P________PP_P_ SH241965 -12.3150 84.6275 12 -1 -12.3453 84.5833 TC 35 998 -12.3432 84.5887 1 -12.3225 84.6201 TC 22 9 229
1965046S07091 1965 19 SI MM ANNIE 1965-02-16 12:00:00 TS -12.6000 84.3000 main 2020 2020 O________OO_O_ jtwc_sh SH241965 -12.6000 84.3000 10 -1 -12.6000 84.3000 TC 35 998 -12.6000 84.3000 7 -12.6000 84.3000 TC 25 7 227
1965046S07091 1965 19 SI MM ANNIE 1965-02-16 15:00:00 TS -12.8107 84.0792 main 2051 2051 P________PP_P_ SH241965 -12.8299 84.0624 10 -1 -12.8010 84.0840 TC 35 998 -12.8010 84.0840 7 -12.7724 84.1199 TC 25 5 225
1965046S07091 1965 19 SI MM ANNIE 1965-02-16 18:00:00 TS -12.9699 83.9249 main 2081 2081 O________PP_O_ jtwc_sh SH241965 -13.0000 83.9000 10 -1 -12.9597 83.9245 TC 35 998 -12.9597 83.9245 7 -12.9000 84.0000 TC 25 4 223
1965046S07091 1965 19 SI MM ANNIE 1965-02-16 21:00:00 TS -13.0966 83.8005 main 2097 2097 P________PP_P_ SH241965 -13.1150 83.7849 10 -1 -13.0886 83.8029 TC 35 998 -13.0886 83.8029 7 -13.0575 83.8425 TC 25 3 224
1965046S07091 1965 19 SI MM ANNIE 1965-02-17 00:00:00 TS -13.2000 83.7000 main 2112 2112 O________OO_O_ jtwc_sh SH241965 -13.2000 83.7000 10 -1 -13.2000 83.7000 TC 35 998 -13.2000 83.7000 7 -13.2000 83.7000 TC 25 3 224
1965046S07091 1965 19 SI MM ANNIE 1965-02-17 03:00:00 TS -13.3060 83.5953 main 2128 2128 P________PP_P_ SH241965 -13.3000 83.6000 10 -1 -13.3143 83.5896 TC 35 998 -13.3143 83.5896 7 -13.3075 83.5925 TC 25 3 224
1965046S07091 1965 19 SI MM ANNIE 1965-02-17 06:00:00 TS -13.4050 83.4975 main 2143 2143 O________PP_O_ jtwc_sh SH241965 -13.4000 83.5000 10 -1 -13.4149 83.4924 TC 35 998 -13.4149 83.4924 7 -13.4000 83.5000 TC 25 3 224
1965046S07091 1965 19 SI MM ANNIE 1965-02-17 09:00:00 TS -13.5027 83.4046 main 2158 2158 P________PP_P_ SH241965 -13.5000 83.4075 7 -1 -13.5081 83.3990 TC 35 998 -13.5081 83.3990 7 -13.5000 83.4075 TC 25 3 225
1965046S07091 1965 19 SI MM ANNIE 1965-02-17 12:00:00 TS -13.6000 83.3000 main 2174 2174 O________OO_O_ jtwc_sh SH241965 -13.6000 83.3000 5 -1 -13.6000 83.3000 TC 35 998 -13.6000 83.3000 7 -13.6000 83.3000 TC 25 3 231
1965046S07091 1965 19 SI MM ANNIE 1965-02-17 15:00:00 TS -13.6973 83.1594 main 2189 2189 P________PP_P_ SH241965 -13.7000 83.1500 5 -1 -13.6919 83.1781 TC 35 998 -13.6919 83.1781 7 -13.7000 83.1500 TC 25 3 234
1965046S07091 1965 19 SI MM ANNIE 1965-02-17 18:00:00 TS -13.7950 83.0167 main 2213 2213 O________PP_O_ jtwc_sh SH241965 -13.8000 83.0000 5 -1 -13.7850 83.0500 TC 35 998 -13.7850 83.0500 7 -13.8000 83.0000 TC 25 3 232
1965046S07091 1965 19 SI MM ANNIE 1965-02-17 21:00:00 TS -13.8902 82.9023 main 2228 2228 P________PP_P_ SH241965 -13.8925 82.8925 5 -1 -13.8856 82.9218 TC 35 998 -13.8856 82.9218 7 -13.8925 82.8925 TC 25 3 226
1965046S07091 1965 19 SI MM ANNIE 1965-02-18 00:00:00 TS -14.0000 82.8000 main 2242 2242 O________OO_O_ jtwc_sh SH241965 -14.0000 82.8000 5 -1 -14.0000 82.8000 TC 35 998 -14.0000 82.8000 7 -14.0000 82.8000 TC 25 3 218
1965046S07091 1965 19 SI MM ANNIE 1965-02-18 03:00:00 TS -14.1402 82.6976 main 2252 2252 P________PP_P_ SH241965 -14.1425 82.7000 5 -1 -14.1356 82.6928 TC 35 998 -14.1356 82.6928 7 -14.1425 82.7000 TC 25 4 214
1965046S07091 1965 19 SI MM ANNIE 1965-02-18 06:00:00 TS -14.2950 82.5975 main 2273 2273 O________PP_O_ jtwc_sh SH241965 -14.3000 82.6000 5 -1 -14.2850 82.5925 TC 35 998 -14.2850 82.5925 7 -14.3000 82.6000 TC 25 4 212
1965046S07091 1965 19 SI MM ANNIE 1965-02-18 09:00:00 TS -14.4473 82.4986 main 2283 2283 P________PP_P_ SH241965 -14.4500 82.5000 5 -1 -14.4419 82.4959 TC 35 998 -14.4419 82.4959 7 -14.4500 82.5000 TC 25 4 212
1965046S07091 1965 19 SI MM ANNIE 1965-02-18 12:00:00 TS -14.6000 82.4000 main 2305 2305 O________OO_O_ jtwc_sh SH241965 -14.6000 82.4000 5 -1 -14.6000 82.4000 TC 35 998 -14.6000 82.4000 7 -14.6000 82.4000 TC 25 4 212
1965046S07091 1965 19 SI MM ANNIE 1965-02-18 15:00:00 TS -14.7500 82.3013 main 2315 2315 P________PP_P_ SH241965 -14.7500 82.3000 5 -1 -14.7500 82.3040 TC 35 998 -14.7500 82.3040 7 -14.7500 82.3000 TC 25 4 212
1965046S07091 1965 19 SI MM ANNIE 1965-02-18 18:00:00 TS -14.9000 82.2025 main 2336 2336 O________PP_O_ jtwc_sh SH241965 -14.9000 82.2000 5 -1 -14.9000 82.2074 TC 35 998 -14.9000 82.2074 7 -14.9000 82.2000 TC 25 4 212
1965046S07091 1965 19 SI MM ANNIE 1965-02-18 21:00:00 TS -15.0500 82.1036 main 2347 2347 P________PP_P_ SH241965 -15.0500 82.1000 5 -1 -15.0500 82.1071 TC 35 998 -15.0500 82.1071 7 -15.0500 82.1075 TC 25 4 213
1965046S07091 1965 19 SI MM ANNIE 1965-02-19 00:00:00 TS -15.2000 82.0000 main 2368 2368 O________OO_O_ jtwc_sh SH241965 -15.2000 82.0000 5 -1 -15.2000 82.0000 TC 35 998 -15.2000 82.0000 7 -15.2000 82.0000 TC 25 4 215
1965046S07091 1965 19 SI MM ANNIE 1965-02-19 03:00:00 TS -15.3446 81.8867 main 2379 2379 P________PP_P_ SH241965 -15.3500 81.9075 5 -1 -15.3338 81.8740 TC 35 998 -15.3338 81.8740 7 -15.3500 81.8500 TC 25 4 218
1965046S07091 1965 19 SI MM ANNIE 1965-02-19 06:00:00 TS -15.4900 81.7642 main 2401 2400 O________PP_O_ jtwc_sh SH241965 -15.5000 81.8000 5 -1 -15.4700 81.7424 TC 35 998 -15.4700 81.7424 7 -15.5000 81.7000 TC 25 4 221
1965046S07091 1965 19 SI MM ANNIE 1965-02-19 09:00:00 TS -15.6304 81.6286 main 2411 2411 P________PP_P_ SH241965 -15.6350 81.6500 7 -1 -15.6213 81.6146 TC 35 998 -15.6213 81.6146 7 -15.6350 81.5924 TC 25 4 219
1965046S07091 1965 19 SI MM ANNIE 1965-02-19 12:00:00 TS -15.8000 81.5000 main 2432 2432 O________OO_O_ jtwc_sh SH241965 -15.8000 81.5000 10 -1 -15.8000 81.5000 TC 35 998 -15.8000 81.5000 7 -15.8000 81.5000 TC 25 5 210
1965046S07091 1965 19 SI MM ANNIE 1965-02-19 15:00:00 TS -16.0304 81.3921 main 2454 2454 P________PP_P_ SH241965 -16.0350 81.3850 10 -1 -16.0212 81.4025 TC 33 998 -16.0212 81.4025 7 -16.0350 81.3925 TC 20 5 201
1965046S07091 1965 19 SI MM ANNIE 1965-02-19 18:00:00 TS -16.2900 81.3067 main 2488 2488 O________PP_O_ jtwc_sh SH241965 -16.3000 81.3000 10 -1 -16.2700 81.3200 TC 32 999 -16.2700 81.3200 7 -16.3000 81.3000 TC 15 5 196
1965046S07091 1965 19 SI MM ANNIE 1965-02-19 21:00:00 TS -16.5446 81.2458 main 2503 2495 P________PP_P_ SH241965 -16.5500 81.2425 10 -1 -16.5337 81.2525 TC 31 999 -16.5337 81.2525 7 -16.5500 81.2425 TC 12 5 191
1965046S07091 1965 19 SI MM ANNIE 1965-02-20 00:00:00 TS -16.8000 81.2000 main 2495 2480 O________OO_O_ jtwc_sh SH241965 -16.8000 81.2000 10 -1 -16.8000 81.2000 TC 30 1000 -16.8000 81.2000 1 10 -16.8000 81.2000 TC 10 5 191
1965046S07091 1965 19 SI MM ANNIE 1965-02-20 03:00:00 TS -17.0527 81.1472 main 2478 2473 P________PP_P_ SH241965 -17.0500 81.1425 12 -1 -17.0581 81.1565 TC 30 1000 -17.0581 81.1565 1 12 -17.0500 81.1425 TC 12 5 190
1965046S07091 1965 19 SI MM ANNIE 1965-02-20 06:00:00 TS -17.3050 81.1091 main 2473 2469 O________PP_O_ jtwc_sh SH241965 -17.3000 81.1000 15 -1 -17.3150 81.1274 TC 30 1000 -17.3150 81.1274 1 15 -17.3000 81.1000 TC 15 5 184
1965046S07091 1965 19 SI MM ANNIE 1965-02-20 09:00:00 TS -17.5598 81.0982 main 2466 2462 P________PP_P_ SH241965 -17.5575 81.0925 17 -1 -17.5644 81.1096 TC 30 1000 -17.5644 81.1096 1 17 -17.5575 81.0925 TC 17 5 183
1965046S07091 1965 19 SI MM ANNIE 1965-02-20 12:00:00 TS -17.8000 81.1000 main 2462 2458 O________OO_O_ jtwc_sh SH241965 -17.8000 81.1000 20 -1 -17.8000 81.1000 TC 30 1000 -17.8000 81.1000 1 20 -17.8000 81.1000 TC 20 5 0
1965046S07091 1965 19 SI MM ANNIE 1965-02-20 15:00:00 TS -18.0098 81.0976 main 2458 2455 P________PP_P_ SH241965 -18.0075 81.1000 25 -1 -18.0144 81.0928 TC 30 1000 -18.0144 81.0928 1 25 -18.0075 81.1000 TC 25 4 183
1965046S07091 1965 19 SI MM ANNIE 1965-02-20 18:00:00 TS -18.2050 81.0975 main 2455 2451 O________PP_O_ jtwc_sh SH241965 -18.2000 81.1000 30 -1 -18.2150 81.0924 TC 30 1000 -18.2150 81.0924 1 30 -18.2000 81.1000 TC 30 4 176
1965046S07091 1965 19 SI MM ANNIE 1965-02-20 21:00:00 TS -18.4027 81.0986 main 2451 2448 P________PP_P_ SH241965 -18.4000 81.1000 35 0 -18.4081 81.0959 TC 30 1000 -18.4081 81.0959 1 35 -18.4000 81.1000 TC 32 4 177
1965046S07091 1965 19 SI MM ANNIE 1965-02-21 00:00:00 TS -18.6000 81.1000 main 2448 2445 O________OO_O_ jtwc_sh SH241965 -18.6000 81.1000 40 0 -18.6000 81.1000 TC 30 1000 -18.6000 81.1000 2 40 -18.6000 81.1000 TC 35 4 0
1965046S07091 1965 19 SI MM ANNIE 1965-02-21 03:00:00 TS -18.8027 81.0987 main 2445 2442 P________PP_P_ SH241965 -18.8000 81.1000 37 0 -18.8081 81.0960 TC 28 1000 -18.8081 81.0960 2 37 -18.8000 81.1000 TC 35 4 183
1965046S07091 1965 19 SI MM ANNIE 1965-02-21 06:00:00 TS -19.0050 81.0975 main 2442 2439 O________PP_O_ jtwc_sh SH241965 -19.0000 81.1000 35 0 -19.0150 81.0925 TC 27 1001 -19.0150 81.0925 2 35 -19.0000 81.1000 TC 35 4 182
1965046S07091 1965 19 SI MM ANNIE 1965-02-21 09:00:00 TS -19.2098 81.0976 main 2439 2436 P________PP_P_ SH241965 -19.2075 81.1000 32 -1 -19.2144 81.0928 TC 26 1001 -19.2144 81.0928 2 32 -19.2075 81.1000 TC 32 4 177
1965046S07091 1965 19 SI MM ANNIE 1965-02-21 12:00:00 TS -19.4000 81.1000 main 2436 2435 O________OO_O_ jtwc_sh SH241965 -19.4000 81.1000 30 -1 -19.4000 81.1000 TC 25 1002 -19.4000 81.1000 1 30 -19.4000 81.1000 TC 30 3 0
1965046S07091 1965 19 SI MM ANNIE 1965-02-21 15:00:00 TS -19.5571 81.1010 main 2434 2433 P________PP_P_ SH241965 -19.5575 81.0925 30 -1 -19.5562 81.1178 TC 25 1002 -19.5562 81.1178 1 28 -19.5575 81.0925 TC 27 3 0
1965046S07091 1965 19 SI MM ANNIE 1965-02-21 18:00:00 TS -19.7000 81.1142 main 2433 2432 O________PP_O_ jtwc_sh SH241965 -19.7000 81.1000 30 -1 -19.7000 81.1425 TC 25 1002 -19.7000 81.1425 1 27 -19.7000 81.1000 TC 25 3 169
1965046S07091 1965 19 SI MM ANNIE 1965-02-21 21:00:00 TS -19.8429 81.1570 main 2442 2440 P________PP_P_ SH241965 -19.8425 81.1500 27 -1 -19.8437 81.1709 TC 25 1002 -19.8437 81.1709 1 26 -19.8425 81.1500 TC 25 3 166
1965046S07091 1965 19 SI MM ANNIE 1965-02-22 00:00:00 TS -20.0000 81.2000 main 2440 2438 O________OO_O_ jtwc_sh SH241965 -20.0000 81.2000 25 -1 -20.0000 81.2000 TC 25 1002 -20.0000 81.2000 1 25 -20.0000 81.2000 TC 25 3 173
1965046S07091 1965 19 SI MM ANNIE 1965-02-22 03:00:00 TS -20.1875 81.2057 main 2438 2437 P________PP_P_ SH241965 -20.1925 81.2001 25 -1 -20.1775 81.2170 TC 26 1001 -20.1775 81.2170 1 23 -20.1925 81.2001 TC 22 4 0
1965046S07091 1965 19 SI MM ANNIE 1965-02-22 06:00:00 TS -20.3900 81.2117 main 2437 2435 O________PP_O_ jtwc_sh SH241965 -20.4000 81.2000 25 -1 -20.3700 81.2352 TC 27 1001 -20.3700 81.2352 1 22 -20.4000 81.2000 TC 20 4 175
1965046S07091 1965 19 SI MM ANNIE 1965-02-22 09:00:00 TS -20.5875 81.2486 main 2435 2435 P________PP_P_ SH241965 -20.5925 81.2425 22 -1 -20.5775 81.2608 TC 28 1000 -20.5775 81.2608 1 21 -20.5925 81.2425 TC 20 4 170
1965046S07091 1965 19 SI MM ANNIE 1965-02-22 12:00:00 TS -20.8000 81.3000 main 2444 2443 O________OO_O_ jtwc_sh SH241965 -20.8000 81.3000 20 -1 -20.8000 81.3000 TC 30 1000 -20.8000 81.3000 1 20 -20.8000 81.3000 TC 20 5 168
1965046S07091 1965 19 SI MM ANNIE 1965-02-22 15:00:00 TS -21.0402 81.3499 main 2443 2443 P________PP_P_ SH241965 -21.0425 81.3426 20 -1 -21.0357 81.3646 TC 28 1000 -21.0357 81.3646 1 20 -21.0425 81.3426 TC 20 5 168
1965046S07091 1965 19 SI MM ANNIE 1965-02-22 18:00:00 TS -21.2950 81.4141 main 2453 2452 O________PP_O_ jtwc_sh SH241965 -21.3000 81.4000 20 -1 -21.2850 81.4424 TC 27 1001 -21.2850 81.4424 1 20 -21.3000 81.4000 TC 20 5 164
1965046S07091 1965 19 SI MM ANNIE 1965-02-22 21:00:00 TS -21.5473 81.5080 main 2462 2462 P________PP_P_ SH241965 -21.5500 81.5000 20 -1 -21.5419 81.5240 TC 26 1001 -21.5419 81.5240 1 20 -21.5500 81.5000 TC 20 5 161
1965046S07091 1965 19 SI MM ANNIE 1965-02-23 00:00:00 TS -21.8000 81.6000 main 2472 2472 O________OO_O_ jtwc_sh SH241965 -21.8000 81.6000 20 -1 -21.8000 81.6000 TC 25 1002 -21.8000 81.6000 1 20 -21.8000 81.6000 TC 20 5 165
1965046S07091 1965 19 SI MM ANNIE 1965-02-23 03:00:00 TS -22.0540 81.6548 main 2482 2482 P________PP_P_ SH241965 -22.0500 81.6576 22 -1 -22.0621 81.6492 TC 25 1002 -22.0621 81.6492 1 21 -22.0500 81.6576 TC 20 5 170
1965046S07091 1965 19 SI MM ANNIE 1965-02-23 06:00:00 TS -22.3075 81.6976 main 2482 2482 O________PP_O_ jtwc_sh SH241965 -22.3000 81.7000 25 -1 -22.3224 81.6927 TC 25 1002 -22.3224 81.6927 1 22 -22.3000 81.7000 TC 20 5 171
1965046S07091 1965 19 SI MM ANNIE 1965-02-23 09:00:00 TS -22.5622 81.7416 main 2483 2483 P________PP_P_ SH241965 -22.5575 81.7425 25 -1 -22.5715 81.7399 TC 25 1002 -22.5715 81.7399 1 23 -22.5575 81.7425 TC 22 5 169
1965046S07091 1965 19 SI MM ANNIE 1965-02-23 12:00:00 TS -22.8000 81.8000 main 2494 2494 O________OO_O_ jtwc_sh SH241965 -22.8000 81.8000 25 -1 -22.8000 81.8000 TC 25 1002 -22.8000 81.8000 1 25 -22.8000 81.8000 TC 25 5 163
1965046S07091 1965 19 SI MM ANNIE 1965-02-23 15:00:00 TS -23.0062 81.8902 main 2505 2505 P________PP_P_ SH241965 -23.0150 81.8925 25 -1 -22.9884 81.8857 TC 23 1002 -22.9884 81.8857 1 25 -23.0150 81.8925 TC 25 4 155
1965046S07091 1965 19 SI MM ANNIE 1965-02-23 18:00:00 TS -23.1858 81.9950 main 2516 2516 O________PP_O_ jtwc_sh SH241965 -23.2000 82.0000 25 -1 -23.1575 81.9851 TC 22 1003 -23.1575 81.9851 1 25 -23.2000 82.0000 TC 25 4 150
1965046S07091 1965 19 SI MM ANNIE 1965-02-23 21:00:00 TS -23.3359 82.0974 main 2527 2527 P________PP_P_ SH241965 -23.3425 82.1001 25 -1 -23.3228 82.0920 TC 21 1003 -23.3228 82.0920 1 25 -23.3425 82.1001 TC 25 4 149
1965046S07091 1965 19 SI MM ANNIE 1965-02-24 00:00:00 TS -23.5000 82.2000 main 2538 2538 O________OO_O_ jtwc_sh SH241965 -23.5000 82.2000 25 -1 -23.5000 82.2000 TC 20 1004 -23.5000 82.2000 1 25 -23.5000 82.2000 TC 25 4 155
1965046S07091 1965 19 SI MM ANNIE 1965-02-24 03:00:00 TS -23.7359 82.2986 main 2550 2550 P________PP_P_ SH241965 -23.7425 82.3000 25 -1 -23.7228 82.2960 TC 20 1004 -23.7228 82.2960 1 22 -23.7425 82.3000 TC 22 5 159
1965046S07091 1965 19 SI MM ANNIE 1965-02-24 06:00:00 TS -23.9858 82.3975 main 2562 2562 O________PP_O_ jtwc_sh SH241965 -24.0000 82.4000 25 -1 -23.9574 82.3925 TC 20 1004 -23.9574 82.3925 1 20 -24.0000 82.4000 TC 20 5 159
1965046S07091 1965 19 SI MM ANNIE 1965-02-24 09:00:00 TS -24.2061 82.4976 main 2574 2574 P________PP_P_ SH241965 -24.2150 82.5000 25 -1 -24.1884 82.4928 TC 20 1004 -24.1884 82.4928 1 17 -24.2150 82.5000 TC 17 5 156
1965046S07091 1965 19 SI MM ANNIE 1965-02-24 12:00:00 TS -24.4000 82.6000 main 2586 2586 O________OO_O_ jtwc_sh SH241965 -24.4000 82.6000 25 -1 -24.4000 82.6000 TC 20 1004 -24.4000 82.6000 1 15 -24.4000 82.6000 TC 15 4 152
1965046S07091 1965 19 SI MM ANNIE 1965-02-24 15:00:00 TS -24.5622 82.7051 main 2598 2598 P________PP_P_ SH241965 -24.5575 82.6926 25 -1 -24.5716 82.7300 TC 20 1004 -24.5716 82.7300 1 -24.5575 82.6926 TC 17 4 147
1965046S07091 1965 19 SI MM ANNIE 1965-02-24 18:00:00 TS -24.7075 82.8217 main 2610 2610 O________PP_O_ jtwc_sh SH241965 -24.7000 82.8000 25 -1 -24.7226 82.8650 TC 20 1004 -24.7226 82.8650 1 -24.7000 82.8000 TC 20 4 141
1965046S07091 1965 19 SI MM ANNIE 1965-02-24 21:00:00 TS -24.8541 82.9691 main 2632 2632 P________PP_P_ SH241965 -24.8500 82.9575 22 -1 -24.8622 82.9925 TC 20 1004 -24.8622 82.9925 1 -24.8500 82.9575 TC 22 4 139
1965046S07091 1965 19 SI MM ANNIE 1965-02-25 00:00:00 TS -25.0000 83.1000 main 2643 2643 O________OO_O_ jtwc_sh SH241965 -25.0000 83.1000 20 -1 -25.0000 83.1000 TC 20 1004 -25.0000 83.1000 7 -25.0000 83.1000 TC 25 3 150
1965046S07091 1965 19 SI MM ANNIE 1965-02-25 03:00:00 TS -25.1526 83.1606 main 2656 2656 P________PP_P_ SH241965 -25.1500 83.1651 20 -1 -25.1580 83.1515 TC 20 1004 -25.1580 83.1515 7 -25.1500 83.1651 TC 25 3 164
1965046S07091 1965 19 SI MM ANNIE 1965-02-25 06:00:00 TS -25.3049 83.1951 main 2657 2657 O________PP_O_ jtwc_sh SH241965 -25.3000 83.2000 20 -1 -25.3148 83.1854 TC 20 1004 -25.3148 83.1854 7 -25.3000 83.2000 TC 25 3 168
1965046S07091 1965 19 SI MM ANNIE 1965-02-25 09:00:00 TS -25.4597 83.2322 main 2660 2660 P________PP_P_ SH241965 -25.4575 83.2350 20 -1 -25.4642 83.2265 TC 20 1004 -25.4642 83.2265 7 -25.4575 83.2350 TC 25 3 161
1965046S07091 1965 19 SI MM ANNIE 1965-02-25 12:00:00 TS -25.6000 83.3000 main 2671 2671 O________OO_O_ jtwc_sh SH241965 -25.6000 83.3000 20 -1 -25.6000 83.3000 TC 20 1004 -25.6000 83.3000 7 -25.6000 83.3000 TC 25 3 144
1965046S07091 1965 19 SI MM ANNIE 1965-02-25 15:00:00 TS -25.7017 83.4274 main 2683 2683 P________PP_P_ SH241965 -25.7075 83.4275 20 -1 -25.6900 83.4273 TC 18 1004 -25.6900 83.4273 7 -25.7075 83.4275 TC 25 3 125
1965046S07091 1965 19 SI MM ANNIE 1965-02-25 18:00:00 TS -25.7900 83.5969 main 2704 2704 O________PP_O_ jtwc_sh SH241965 -25.8000 83.6000 20 -1 -25.7699 83.5907 TC 17 1005 -25.7699 83.5907 7 -25.8000 83.6000 TC 25 4 119
1965046S07091 1965 19 SI MM ANNIE 1965-02-25 21:00:00 TS -25.8770 83.7847 main 2725 2725 P________PP_P_ SH241965 -25.8850 83.7851 20 -1 -25.8649 83.7837 TC 16 1005 -25.8649 83.7837 7 -25.8775 83.7852 TC 25 4 120
1965046S07091 1965 19 SI MM ANNIE 1965-02-26 00:00:00 TS -26.0000 84.0000 main 2746 2746 O________OO_O_ jtwc_sh SH241965 -26.0000 84.0000 20 -1 -26.0000 84.0000 TC 15 1006 -26.0000 84.0000 7 -26.0000 84.0000 TC 25 5 127
1965046S07091 1965 19 SI MM ANNIE 1965-02-26 03:00:00 TS -26.1874 84.2396 main 2769 2769 P________PP_P_ SH241965 -26.1700 84.2426 17 -1 -26.1933 84.2338 TC 15 1006 -26.1933 84.2338 7 -26.2275 84.2424 TC 25 6 134
1965046S07091 1965 19 SI MM ANNIE 1965-02-26 06:00:00 TS -26.4285 84.4937 main 2799 2775 O________PP_O_ jtwc_sh SH241965 -26.4000 84.5000 15 -1 -26.4354 84.4810 TC 15 1006 -26.4354 84.4810 7 -26.5000 84.5000 TC 25 7 139
1965046S07091 1965 19 SI MM ANNIE 1965-02-26 09:00:00 TS -26.7054 84.7474 main 2775 2756 P________PP_P_ SH241965 -26.6851 84.7522 15 -1 -26.7098 84.7377 TC 15 1006 -26.7098 84.7377 7 -26.7576 84.7524 TC 25 7 142
1965046S07091 1965 19 SI MM ANNIE 1965-02-26 12:00:00 TS -27.0000 85.0000 main 2756 O________OO_O_ jtwc_sh SH241965 -27.0000 85.0000 15 -1 -27.0000 85.0000 TC 15 1006 -27.0000 85.0000 7 -27.0000 85.0000 TC 25 7 143

About IBTrACS Database

This database is a web-friendly format of International Best Track Archive for Climate Stewardship (IBTrACS), a global best track data archive curated by NOAA dating back to 1842.

Updated: 2021-10-25